Buckner, Illinois
Current Conditions -  °F | °C
As of 11:49 AM on Friday 31 Oct 2014 (Local Time) from KMWA Reporting Station
Broken Clouds Broken Clouds  
Wind Chill: 40°   Ceiling: 5000
Heat Index: 46°   Visibility: 20mi
Dew Point: 28°   Wind: 16mph
Humidity: 50%   Direction: 340°NNW
Pressure: 30.18"   Gusts: 24mph
Location:  37.98°N, 89.02°W
Report Text: KMWA 311649Z 34014G21KT 20SM BKN050 08/M02 A3018
Loading
Personal Weather Stations






























Interactive Weather Map
Tropical Storm Tracking
New forecast layout! Learn more

10-Day Weather Forecast

Advertisements
Track Severe Weather on mobile